Time;durP1;ratioP1;P1;durP2;ratioP2;P2;SDS_P1;SDS_P2;PMS_P1;PMS_P2;Temp;Humidity;BMP_temperature;BMP_pressure;BME280_temperature;BME280_humidity;BME280_pressure;Samples;Min_cycle;Max_cycle;Signal;HPM_P1;HPM_P2
2022/08/29 00:00:18;;;;;;;8.83;5.40;;;17.40;78.40;;;;;;5061119;28;20187;-75
2022/08/29 00:02:51;;;;;;;10.50;6.27;;;17.40;78.40;;;;;;5064344;28;20220;-74
2022/08/29 00:05:22;;;;;;;11.60;6.60;;;17.50;78.00;;;;;;5057693;28;20637;-75
2022/08/29 00:07:49;;;;;;;11.80;6.63;;;17.60;77.70;;;;;;5074170;28;20190;-75
2022/08/29 00:10:17;;;;;;;12.17;6.80;;;17.70;77.00;;;;;;5056410;28;20266;-74
2022/08/29 00:12:44;;;;;;;9.30;6.47;;;17.80;76.70;;;;;;5070134;28;20221;-74
2022/08/29 00:15:13;;;;;;;11.63;6.07;;;17.80;76.10;;;;;;5062806;28;20170;-73
2022/08/29 00:17:41;;;;;;;10.57;6.07;;;17.80;76.90;;;;;;5066963;28;20187;-75
2022/08/29 00:20:12;;;;;;;8.93;5.60;;;17.80;76.10;;;;;;5087737;28;20181;-74
2022/08/29 00:22:40;;;;;;;10.60;6.07;;;17.80;76.30;;;;;;5056918;28;20204;-74
2022/08/29 00:25:09;;;;;;;9.10;5.40;;;18.00;75.60;;;;;;5069219;28;20175;-74
2022/08/29 00:27:36;;;;;;;7.27;5.17;;;18.00;75.50;;;;;;5065508;28;20183;-75
2022/08/29 00:30:06;;;;;;;8.77;5.37;;;18.20;74.80;;;;;;5067982;28;20270;-74
2022/08/29 00:32:35;;;;;;;9.57;5.70;;;18.00;75.40;;;;;;5066887;28;20630;-74
2022/08/29 00:35:05;;;;;;;11.97;5.37;;;17.90;76.20;;;;;;5066394;28;20266;-75
2022/08/29 00:37:33;;;;;;;8.30;5.60;;;18.00;76.20;;;;;;5068287;28;20178;-75
2022/08/29 00:40:03;;;;;;;9.20;6.23;;;18.40;75.90;;;;;;5063382;28;20222;-75
2022/08/29 00:42:30;;;;;;;12.93;6.60;;;18.50;74.50;;;;;;5068689;28;20223;-75
2022/08/29 00:44:58;;;;;;;9.87;4.83;;;18.50;74.60;;;;;;5072017;28;20510;-76
2022/08/29 00:47:31;;;;;;;8.90;4.90;;;18.50;74.60;;;;;;5070308;28;20183;-74
2022/08/29 00:49:59;;;;;;;6.43;4.07;;;18.80;73.30;;;;;;5068157;28;20194;-75
2022/08/29 00:52:36;;;;;;;7.77;4.47;;;19.10;72.80;;;;;;5070095;28;20214;-77
2022/08/29 00:55:11;;;;;;;10.33;4.60;;;19.00;72.40;;;;;;5060567;28;20668;-78
2022/08/29 00:57:43;;;;;;;6.13;3.80;;;19.00;72.60;;;;;;5066437;28;20175;-77
2022/08/29 01:00:13;;;;;;;8.67;3.27;;;19.20;71.60;;;;;;5066888;28;20194;-75
2022/08/29 01:02:41;;;;;;;8.37;2.90;;;19.40;71.20;;;;;;5063207;28;20211;-74
2022/08/29 01:05:14;;;;;;;9.00;2.73;;;19.60;69.50;;;;;;5068961;28;20564;-74
2022/08/29 01:07:42;;;;;;;4.87;2.67;;;19.70;69.50;;;;;;5068050;28;20186;-75
2022/08/29 01:12:14;;;;;;;7.10;2.90;;;19.60;69.20;;;;;;5065221;28;20201;-75
2022/08/29 01:12:57;;;;;;;10.57;3.20;;;19.50;69.60;;;;;;5066575;28;20938;-75
2022/08/29 01:15:25;;;;;;;10.67;3.13;;;19.60;69.90;;;;;;5079766;28;20182;-75
2022/08/29 01:17:54;;;;;;;10.30;3.40;;;19.70;69.60;;;;;;5071218;28;20265;-75
2022/08/29 01:20:48;;;;;;;4.70;2.17;;;19.60;69.40;;;;;;5051665;28;20263;-74
2022/08/29 01:23:22;;;;;;;5.73;2.07;;;19.80;68.20;;;;;;5065165;28;20206;-73
2022/08/29 01:25:51;;;;;;;7.00;2.10;;;19.90;67.30;;;;;;5058811;28;20650;-75
2022/08/29 01:28:27;;;;;;;3.50;1.60;;;19.90;67.60;;;;;;5054321;28;20188;-74
2022/08/29 01:31:24;;;;;;;2.80;1.47;;;20.30;66.60;;;;;;5072301;28;20185;-77
2022/08/29 01:34:01;;;;;;;3.63;1.37;;;20.60;64.00;;;;;;5061627;28;20249;-77
2022/08/29 01:36:49;;;;;;;4.97;1.40;;;20.60;63.80;;;;;;5051892;28;20241;-81
2022/08/29 01:39:18;;;;;;;4.50;1.30;;;20.50;63.00;;;;;;5053658;28;20525;-82
2022/08/29 01:41:45;;;;;;;3.03;1.27;;;20.50;62.50;;;;;;5053239;28;20312;-75
2022/08/29 01:44:19;;;;;;;1.77;1.30;;;20.30;62.90;;;;;;5064587;28;20205;-76
2022/08/29 01:46:53;;;;;;;4.47;1.43;;;20.30;62.80;;;;;;5060995;28;20531;-78
2022/08/29 01:49:23;;;;;;;2.50;1.30;;;20.50;63.10;;;;;;5071221;28;20213;-79
2022/08/29 01:51:51;;;;;;;4.67;1.63;;;20.40;62.70;;;;;;5068425;28;20187;-79
2022/08/29 01:54:19;;;;;;;5.83;1.40;;;20.20;63.50;;;;;;5062727;28;20183;-81
2022/08/29 01:56:50;;;;;;;9.97;1.83;;;20.20;64.00;;;;;;5063385;28;20715;-77
2022/08/29 01:59:21;;;;;;;2.50;1.37;;;20.00;63.90;;;;;;5064386;28;20250;-78
2022/08/29 02:02:04;;;;;;;5.10;1.47;;;20.00;64.10;;;;;;5071081;28;20210;-73
2022/08/29 02:04:31;;;;;;;3.37;1.50;;;19.70;64.20;;;;;;5071789;28;20209;-75
2022/08/29 02:06:59;;;;;;;2.90;1.33;;;19.60;65.50;;;;;;5073743;28;20328;-77
2022/08/29 02:09:27;;;;;;;2.77;1.10;;;19.70;65.10;;;;;;5071157;28;20513;-76
2022/08/29 02:11:57;;;;;;;3.27;1.37;;;19.60;64.90;;;;;;5064405;28;20179;-75
2022/08/29 02:14:25;;;;;;;6.70;1.53;;;19.50;65.00;;;;;;5069743;28;20288;-79
2022/08/29 02:16:52;;;;;;;2.13;1.00;;;19.50;65.40;;;;;;5065736;28;20183;-74
2022/08/29 02:19:20;;;;;;;3.93;1.10;;;19.40;66.20;;;;;;5070832;28;20189;-76
2022/08/29 02:21:47;;;;;;;3.37;1.00;;;19.40;66.70;;;;;;5065645;28;20734;-76
2022/08/29 02:24:16;;;;;;;2.10;1.00;;;19.30;67.30;;;;;;5067542;28;20630;-73
2022/08/29 02:26:44;;;;;;;2.67;1.23;;;19.30;68.40;;;;;;5064519;28;20187;-82
2022/08/29 02:29:14;;;;;;;3.90;1.30;;;19.30;69.80;;;;;;5060349;28;20172;-80
2022/08/29 02:31:42;;;;;;;2.67;1.20;;;19.50;69.40;;;;;;5056745;28;20180;-81
2022/08/29 02:34:10;;;;;;;3.00;1.30;;;19.70;69.10;;;;;;5074302;28;20692;-77
2022/08/29 02:36:38;;;;;;;4.13;1.10;;;19.70;69.20;;;;;;5069803;28;20176;-78
2022/08/29 02:39:05;;;;;;;5.70;1.20;;;19.60;69.70;;;;;;5055289;28;20237;-84
2022/08/29 02:41:33;;;;;;;2.53;1.10;;;19.60;70.30;;;;;;5055160;28;20220;-77
2022/08/29 02:44:01;;;;;;;5.03;1.50;;;19.50;70.30;;;;;;5054716;28;20219;-77
2022/08/29 02:46:28;;;;;;;4.63;1.17;;;19.50;70.70;;;;;;5074561;28;20312;-80
2022/08/29 02:48:55;;;;;;;4.67;1.10;;;19.50;70.70;;;;;;5075632;28;20179;-83
2022/08/29 02:51:29;;;;;;;4.30;1.00;;;19.60;70.90;;;;;;5053648;28;20257;-79
2022/08/29 02:53:57;;;;;;;5.20;1.60;;;19.50;71.40;;;;;;5055303;28;20294;-79
2022/08/29 02:56:25;;;;;;;4.10;1.20;;;19.50;71.40;;;;;;5072380;28;20803;-76
2022/08/29 02:58:53;;;;;;;4.90;1.10;;;19.60;71.70;;;;;;5064501;28;20184;-76
2022/08/29 03:01:22;;;;;;;5.07;1.30;;;19.80;72.10;;;;;;5067614;28;20187;-80
2022/08/29 03:03:50;;;;;;;11.50;1.23;;;19.80;72.10;;;;;;5053804;28;20180;-78
2022/08/29 03:06:19;;;;;;;6.07;1.13;;;19.90;71.30;;;;;;5072080;28;20207;-75
2022/08/29 03:08:46;;;;;;;4.73;1.40;;;19.70;72.10;;;;;;5071422;28;20180;-74
2022/08/29 03:11:16;;;;;;;4.03;1.30;;;19.70;72.70;;;;;;5053550;28;20176;-78
2022/08/29 03:13:44;;;;;;;7.77;1.40;;;19.60;72.90;;;;;;5053440;28;20979;-78
2022/08/29 03:16:12;;;;;;;6.43;1.57;;;19.60;73.50;;;;;;5054761;28;20180;-74
2022/08/29 03:18:39;;;;;;;6.17;1.33;;;19.40;74.00;;;;;;5053814;28;20194;-77
2022/08/29 03:21:15;;;;;;;6.73;1.60;;;19.40;73.90;;;;;;5053902;28;20690;-77
2022/08/29 03:23:42;;;;;;;2.50;1.00;;;19.50;74.30;;;;;;5053728;28;20207;-76
2022/08/29 03:26:10;;;;;;;10.60;2.07;;;19.60;74.20;;;;;;5053209;28;20529;-76
2022/08/29 03:28:37;;;;;;;6.30;1.40;;;19.60;73.80;;;;;;5054582;28;20184;-74
2022/08/29 03:31:06;;;;;;;7.13;1.40;;;19.50;74.40;;;;;;5057361;28;20176;-78
2022/08/29 03:33:33;;;;;;;5.43;1.23;;;19.50;73.50;;;;;;5054275;28;20237;-76
2022/08/29 03:36:00;;;;;;;6.60;1.43;;;19.60;74.20;;;;;;5063889;28;20299;-79
2022/08/29 03:38:28;;;;;;;5.97;1.53;;;19.70;74.30;;;;;;5071674;28;20176;-72
2022/08/29 03:40:55;;;;;;;4.50;1.37;;;19.60;74.30;;;;;;5074069;28;20598;-75
2022/08/29 03:43:23;;;;;;;7.57;1.70;;;19.30;74.70;;;;;;5069272;28;20216;-75
2022/08/29 03:45:50;;;;;;;7.47;2.00;;;19.50;74.90;;;;;;5061809;28;20171;-73
2022/08/29 03:48:17;;;;;;;11.17;2.03;;;19.60;74.50;;;;;;5067471;28;20179;-75
2022/08/29 03:50:45;;;;;;;7.27;1.87;;;19.70;73.90;;;;;;5071296;28;20198;-76
2022/08/29 03:53:12;;;;;;;10.83;1.77;;;19.50;74.70;;;;;;5071208;28;20186;-75
2022/08/29 03:55:40;;;;;;;6.63;1.40;;;19.50;74.70;;;;;;5063547;28;20171;-76
2022/08/29 03:58:07;;;;;;;3.83;1.20;;;19.40;75.30;;;;;;5058937;28;20184;-76
2022/08/29 04:00:35;;;;;;;5.77;1.30;;;19.30;75.80;;;;;;5057636;28;20172;-76
2022/08/29 04:03:02;;;;;;;8.13;1.87;;;19.20;75.90;;;;;;5065579;28;20222;-74
2022/08/29 04:05:30;;;;;;;7.50;1.43;;;19.10;76.30;;;;;;5053199;28;20175;-75
2022/08/29 04:07:59;;;;;;;7.50;1.73;;;19.10;77.20;;;;;;5053285;28;20187;-78
2022/08/29 04:10:31;;;;;;;5.80;1.20;;;19.20;77.00;;;;;;5061856;28;20241;-75
2022/08/29 04:12:59;;;;;;;8.10;1.80;;;19.10;76.50;;;;;;5063923;28;20206;-74
2022/08/29 04:15:27;;;;;;;6.83;1.40;;;18.90;76.50;;;;;;5069173;28;20172;-73
2022/08/29 04:17:57;;;;;;;8.07;1.80;;;19.00;76.70;;;;;;5065711;28;20172;-75
2022/08/29 04:20:27;;;;;;;6.37;1.60;;;19.20;76.10;;;;;;5061455;28;20176;-75
2022/08/29 04:22:56;;;;;;;4.47;1.40;;;19.30;75.50;;;;;;5052864;28;20215;-74
2022/08/29 04:25:26;;;;;;;8.57;1.90;;;19.40;75.00;;;;;;5053801;28;20172;-73
2022/08/29 04:27:55;;;;;;;8.73;1.93;;;19.40;74.90;;;;;;5061949;28;20353;-76
2022/08/29 04:30:24;;;;;;;7.47;1.70;;;19.50;74.60;;;;;;5060685;28;20259;-73
2022/08/29 04:32:52;;;;;;;9.23;1.90;;;19.40;74.70;;;;;;5056321;28;20197;-76
2022/08/29 04:35:20;;;;;;;9.87;1.80;;;19.30;75.30;;;;;;5064785;28;20176;-82
2022/08/29 04:37:48;;;;;;;10.37;1.87;;;19.30;74.90;;;;;;5062265;28;20228;-80
2022/08/29 04:40:17;;;;;;;11.07;2.87;;;19.10;75.70;;;;;;5064403;28;20230;-75
2022/08/29 04:42:48;;;;;;;9.03;1.70;;;19.30;75.90;;;;;;5061616;28;20217;-74
2022/08/29 04:45:21;;;;;;;5.67;1.50;;;19.20;75.00;;;;;;5065439;28;20196;-79
2022/08/29 04:47:48;;;;;;;8.97;1.87;;;19.20;75.00;;;;;;5054088;28;20183;-75
2022/08/29 04:50:19;;;;;;;6.53;1.87;;;19.10;74.70;;;;;;5052640;28;20191;-75
2022/08/29 04:52:47;;;;;;;10.27;1.50;;;19.00;75.20;;;;;;5073063;28;20225;-76
2022/08/29 04:55:16;;;;;;;7.00;1.60;;;19.00;74.90;;;;;;5066799;28;20257;-72
2022/08/29 04:57:43;;;;;;;7.63;2.07;;;18.90;75.00;;;;;;5063180;28;20543;-82
2022/08/29 05:00:14;;;;;;;10.83;1.50;;;18.90;75.20;;;;;;5065994;28;20175;-76
2022/08/29 05:02:43;;;;;;;10.57;1.87;;;18.80;75.50;;;;;;5054676;28;20630;-75
2022/08/29 05:05:14;;;;;;;8.43;1.83;;;18.80;75.30;;;;;;5051686;28;20190;-75
2022/08/29 05:07:42;;;;;;;7.23;1.83;;;18.80;75.20;;;;;;5057723;28;20174;-75
2022/08/29 05:10:18;;;;;;;10.77;1.73;;;18.80;75.70;;;;;;5060976;28;20501;-74
2022/08/29 05:12:46;;;;;;;13.37;1.83;;;18.70;75.60;;;;;;5069103;28;20179;-74
2022/08/29 05:15:13;;;;;;;6.90;1.77;;;18.70;76.20;;;;;;5061608;28;20177;-75
2022/08/29 05:17:41;;;;;;;11.00;1.77;;;18.70;76.80;;;;;;5072430;28;20171;-77
2022/08/29 05:20:09;;;;;;;8.30;1.97;;;18.70;77.10;;;;;;5069826;28;20186;-75
2022/08/29 05:22:39;;;;;;;14.60;2.70;;;18.60;77.30;;;;;;5064815;28;20623;-76
2022/08/29 05:25:07;;;;;;;8.27;2.10;;;18.60;77.60;;;;;;5069240;28;20172;-73
2022/08/29 05:27:34;;;;;;;8.70;2.30;;;18.60;77.60;;;;;;5052341;28;20179;-75
2022/08/29 05:30:03;;;;;;;9.80;2.70;;;18.50;77.70;;;;;;5052273;28;20211;-75
2022/08/29 05:32:30;;;;;;;10.27;2.67;;;18.40;77.80;;;;;;5052327;28;20176;-73
2022/08/29 05:34:58;;;;;;;9.60;1.80;;;18.40;78.30;;;;;;5053105;28;20186;-74
2022/08/29 05:37:26;;;;;;;14.33;2.63;;;18.30;78.60;;;;;;5059897;28;20183;-76
2022/08/29 05:39:55;;;;;;;8.03;2.07;;;18.30;78.80;;;;;;5074833;28;20216;-73
2022/08/29 05:42:22;;;;;;;12.03;2.53;;;18.30;79.10;;;;;;5057301;28;20681;-75
2022/08/29 05:44:51;;;;;;;12.17;2.10;;;18.20;79.40;;;;;;5060667;28;20198;-72
2022/08/29 05:47:19;;;;;;;11.80;2.30;;;18.20;79.40;;;;;;5056599;28;20191;-75
2022/08/29 05:49:48;;;;;;;12.50;2.50;;;18.10;79.70;;;;;;5055511;28;20719;-77
2022/08/29 05:52:18;;;;;;;12.13;2.23;;;18.10;79.80;;;;;;5060185;28;20190;-77
2022/08/29 05:54:46;;;;;;;14.20;2.30;;;18.10;80.40;;;;;;5074530;28;20653;-75
2022/08/29 05:57:16;;;;;;;13.03;2.03;;;18.10;81.60;;;;;;5063778;28;20175;-79
2022/08/29 05:59:43;;;;;;;12.67;2.37;;;18.00;82.00;;;;;;5074621;28;20182;-75
2022/08/29 06:02:11;;;;;;;12.13;2.57;;;17.90;82.40;;;;;;5055048;28;20239;-81
2022/08/29 06:04:39;;;;;;;12.90;2.43;;;17.80;82.80;;;;;;5073753;28;20170;-76
2022/08/29 06:07:07;;;;;;;12.90;2.43;;;17.80;82.80;;;;;;5064734;28;20232;-76
2022/08/29 06:09:36;;;;;;;14.87;2.13;;;17.70;83.60;;;;;;5077291;28;20183;-80
2022/08/29 06:12:04;;;;;;;11.80;2.57;;;17.60;84.30;;;;;;5056157;28;20683;-76
2022/08/29 06:14:32;;;;;;;12.87;2.27;;;17.50;84.10;;;;;;5084727;28;20190;-79
2022/08/29 06:16:59;;;;;;;11.40;2.50;;;17.60;84.90;;;;;;5075113;28;20184;-75
2022/08/29 06:19:30;;;;;;;13.80;2.83;;;17.50;85.00;;;;;;5071409;28;20179;-77
2022/08/29 06:21:57;;;;;;;14.20;3.20;;;17.50;85.00;;;;;;5082548;28;20698;-77
2022/08/29 06:24:24;;;;;;;23.00;8.60;;;17.50;85.30;;;;;;5079827;28;20210;-76
2022/08/29 06:26:51;;;;;;;17.67;5.43;;;17.50;85.50;;;;;;5071279;28;20744;-82
2022/08/29 06:29:19;;;;;;;20.97;2.87;;;17.50;85.50;;;;;;5077534;28;20184;-77
2022/08/29 06:31:46;;;;;;;22.60;3.63;;;17.40;85.50;;;;;;5069900;28;20679;-76
2022/08/29 06:34:14;;;;;;;9.27;2.30;;;17.40;85.80;;;;;;5072882;28;20339;-83
2022/08/29 06:36:41;;;;;;;14.37;2.53;;;17.30;86.00;;;;;;5082660;28;20181;-78
2022/08/29 06:39:10;;;;;;;7.77;2.37;;;17.30;86.20;;;;;;5054922;28;20179;-79
2022/08/29 06:41:40;;;;;;;14.63;2.70;;;17.30;86.20;;;;;;5054751;28;20212;-84
2022/08/29 06:44:08;;;;;;;13.40;2.57;;;17.30;86.30;;;;;;5063139;28;20244;-79
2022/08/29 06:46:41;;;;;;;13.40;2.57;;;17.30;86.40;;;;;;5073478;28;20178;-79
2022/08/29 06:49:11;;;;;;;6.93;2.00;;;17.30;86.50;;;;;;5066122;28;20249;-80
2022/08/29 06:51:40;;;;;;;12.03;2.53;;;17.30;86.60;;;;;;5069907;28;20173;-82
2022/08/29 06:54:10;;;;;;;11.27;2.77;;;17.20;86.80;;;;;;5071488;28;20197;-78
2022/08/29 06:56:38;;;;;;;17.93;3.27;;;17.20;86.80;;;;;;5067351;28;20713;-78
2022/08/29 06:59:07;;;;;;;11.93;2.63;;;17.20;86.80;;;;;;5073258;28;20181;-77
2022/08/29 07:01:35;;;;;;;14.50;2.77;;;17.20;87.00;;;;;;5073983;28;20213;-78
2022/08/29 07:04:02;;;;;;;21.33;3.00;;;17.20;86.90;;;;;;5072888;28;20615;-75
2022/08/29 07:06:31;;;;;;;16.50;3.10;;;17.20;86.90;;;;;;5072778;28;20601;-81
2022/08/29 07:08:58;;;;;;;10.80;2.57;;;17.20;87.00;;;;;;5070711;28;20181;-82
2022/08/29 07:11:28;;;;;;;14.13;3.10;;;17.10;87.40;;;;;;5070021;28;20206;-83
2022/08/29 07:13:58;;;;;;;13.00;2.83;;;17.10;87.70;;;;;;5073537;28;20183;-83
2022/08/29 07:16:27;;;;;;;19.83;3.50;;;17.10;87.80;;;;;;5067297;28;20198;-85
2022/08/29 07:18:55;;;;;;;15.73;3.30;;;17.00;87.80;;;;;;5070219;28;20639;-83
2022/08/29 07:21:24;;;;;;;17.90;3.67;;;17.00;88.00;;;;;;5068345;28;20228;-83
2022/08/29 07:23:53;;;;;;;15.03;2.87;;;17.00;88.20;;;;;;5061071;28;20207;-82
2022/08/29 07:26:24;;;;;;;18.33;3.00;;;16.90;88.40;;;;;;5065926;28;20633;-84
2022/08/29 07:28:54;;;;;;;28.43;3.20;;;16.90;88.40;;;;;;5070307;28;20217;-83
2022/08/29 07:31:21;;;;;;;17.87;3.70;;;16.90;88.60;;;;;;5068601;28;20176;-83
2022/08/29 07:33:49;;;;;;;14.80;3.10;;;16.80;88.80;;;;;;5070508;28;20535;-81
2022/08/29 07:36:16;;;;;;;19.73;3.23;;;16.90;89.00;;;;;;5068493;28;20194;-82
2022/08/29 07:38:44;;;;;;;17.87;3.40;;;16.80;89.10;;;;;;5068094;28;20171;-82
2022/08/29 07:41:16;;;;;;;22.53;3.50;;;16.80;89.20;;;;;;5067471;28;20225;-84
2022/08/29 07:43:44;;;;;;;23.77;3.10;;;16.80;89.30;;;;;;5072354;28;20253;-81
2022/08/29 07:46:17;;;;;;;16.97;3.63;;;16.80;89.60;;;;;;5072841;28;20177;-86
2022/08/29 07:48:45;;;;;;;18.77;3.23;;;16.80;89.60;;;;;;5073531;28;20190;-85
2022/08/29 07:51:19;;;;;;;15.00;2.83;;;16.80;89.70;;;;;;5073089;28;20638;-85
2022/08/29 07:53:46;;;;;;;23.97;4.17;;;16.80;89.80;;;;;;5059735;28;20218;-79
2022/08/29 07:56:22;;;;;;;21.13;3.33;;;16.80;89.60;;;;;;5065207;28;20188;-82
2022/08/29 07:58:50;;;;;;;23.50;4.20;;;16.80;89.70;;;;;;5063464;28;20177;-82
2022/08/29 08:01:18;;;;;;;24.23;4.20;;;16.80;89.60;;;;;;5068545;28;20209;-85
2022/08/29 08:03:46;;;;;;;17.73;3.33;;;16.80;89.80;;;;;;5062474;28;20215;-80
2022/08/29 08:06:14;;;;;;;28.03;4.80;;;16.80;89.90;;;;;;5066022;28;20182;-81
2022/08/29 08:08:41;;;;;;;20.30;3.97;;;16.80;90.00;;;;;;5065738;28;20185;-83
2022/08/29 08:11:09;;;;;;;19.43;3.33;;;16.80;90.00;;;;;;5068877;28;20186;-85
2022/08/29 08:13:37;;;;;;;16.40;3.73;;;16.90;89.90;;;;;;5065747;28;20177;-82
2022/08/29 08:16:11;;;;;;;28.10;4.43;;;16.90;89.90;;;;;;5070333;28;20271;-82
2022/08/29 08:18:40;;;;;;;22.60;5.70;;;16.90;89.80;;;;;;5062046;28;20216;-86
2022/08/29 08:21:09;;;;;;;19.67;3.70;;;16.80;89.50;;;;;;5073398;28;20186;-81
2022/08/29 08:23:37;;;;;;;25.70;4.23;;;16.90;89.50;;;;;;5069102;28;20246;-84
2022/08/29 08:26:04;;;;;;;23.03;4.87;;;16.80;89.40;;;;;;5069207;28;20209;-80
2022/08/29 08:28:32;;;;;;;13.27;3.77;;;16.80;89.70;;;;;;5064410;28;20511;-81
2022/08/29 08:31:00;;;;;;;24.27;3.80;;;16.80;89.50;;;;;;5071568;28;20182;-81
2022/08/29 08:33:28;;;;;;;18.53;4.10;;;16.80;89.50;;;;;;5070797;28;20177;-80
2022/08/29 08:35:56;;;;;;;19.97;4.53;;;16.80;89.60;;;;;;5065394;28;20184;-78
2022/08/29 08:38:23;;;;;;;24.93;3.90;;;16.80;89.50;;;;;;5062643;28;20228;-80
2022/08/29 08:41:40;;;;;;;21.27;4.13;;;16.70;89.60;;;;;;5058922;28;20263;-80
2022/08/29 08:44:39;;;;;;;13.67;4.37;;;16.70;89.50;;;;;;5043084;28;20550;-78
2022/08/29 08:47:09;;;;;;;19.33;4.00;;;16.70;89.50;;;;;;5052436;28;20210;-79
2022/08/29 08:49:41;;;;;;;16.00;3.80;;;16.70;89.40;;;;;;5056807;28;20214;-80
2022/08/29 08:52:41;;;;;;;14.67;3.17;;;16.70;89.30;;;;;;5061986;28;20277;-80
2022/08/29 08:55:24;;;;;;;13.90;3.13;;;16.70;89.20;;;;;;5036052;28;20206;-78
2022/08/29 08:58:23;;;;;;;13.37;3.23;;;16.60;88.90;;;;;;5065797;28;20182;-78
2022/08/29 09:01:25;;;;;;;17.50;3.10;;;16.70;88.80;;;;;;5054493;28;20195;-78
2022/08/29 09:04:29;;;;;;;18.20;4.20;;;16.70;88.50;;;;;;5062417;28;20204;-81
2022/08/29 09:07:16;;;;;;;11.97;2.63;;;16.70;88.30;;;;;;5066281;28;20506;-79
2022/08/29 09:10:22;;;;;;;14.17;3.17;;;16.70;88.10;;;;;;5068435;28;20183;-78
2022/08/29 09:13:29;;;;;;;15.07;3.57;;;16.70;88.00;;;;;;5065921;28;20219;-79
2022/08/29 09:16:00;;;;;;;20.43;3.53;;;16.70;88.00;;;;;;5071910;28;20182;-77
2022/08/29 09:18:38;;;;;;;16.70;4.23;;;16.70;87.80;;;;;;5067351;28;20207;-79
2022/08/29 09:21:13;;;;;;;18.67;3.57;;;16.70;88.00;;;;;;5078214;28;20182;-77
2022/08/29 09:23:50;;;;;;;12.63;3.23;;;16.70;87.80;;;;;;5066645;28;20573;-76
2022/08/29 09:26:22;;;;;;;10.33;2.90;;;16.70;87.90;;;;;;5054415;28;20653;-77
2022/08/29 09:28:50;;;;;;;15.33;3.47;;;16.70;87.80;;;;;;5058030;28;20973;-78
2022/08/29 09:31:31;;;;;;;11.53;3.00;;;16.70;87.80;;;;;;5066640;28;20170;-79
2022/08/29 09:34:08;;;;;;;9.70;2.93;;;16.70;87.40;;;;;;5084597;28;20241;-78
2022/08/29 09:36:45;;;;;;;15.13;3.57;;;16.70;87.20;;;;;;5069666;28;20201;-81
2022/08/29 09:39:27;;;;;;;9.97;3.27;;;16.80;87.10;;;;;;5071479;28;20240;-78
2022/08/29 09:42:18;;;;;;;10.63;3.30;;;16.70;87.30;;;;;;5071336;28;20233;-76
2022/08/29 09:44:58;;;;;;;10.30;3.00;;;16.70;87.10;;;;;;5066569;28;20189;-76
2022/08/29 09:47:32;;;;;;;11.77;2.73;;;16.70;87.20;;;;;;5057119;28;20176;-77
2022/08/29 09:50:25;;;;;;;8.57;3.10;;;16.70;87.40;;;;;;5064365;28;20192;-77
2022/08/29 09:52:56;;;;;;;18.60;3.33;;;16.60;87.40;;;;;;5066708;28;20197;-81
2022/08/29 09:55:37;;;;;;;9.70;3.30;;;16.70;87.40;;;;;;5070899;28;20186;-75
2022/08/29 09:58:09;;;;;;;12.77;3.03;;;16.60;87.50;;;;;;5061566;28;20563;-79
2022/08/29 10:00:42;;;;;;;11.17;2.60;;;16.60;87.40;;;;;;5071018;28;20185;-78
2022/08/29 10:03:21;;;;;;;8.07;2.63;;;16.70;87.30;;;;;;5053783;28;20212;-76
2022/08/29 10:05:49;;;;;;;10.77;3.07;;;16.70;87.20;;;;;;5062655;28;20193;-78
2022/08/29 10:08:36;;;;;;;12.23;2.80;;;16.70;87.10;;;;;;5065336;28;20175;-75
2022/08/29 10:11:19;;;;;;;11.13;3.07;;;16.60;87.10;;;;;;5061463;28;20241;-74
2022/08/29 10:13:52;;;;;;;12.50;3.13;;;16.70;87.10;;;;;;5055077;28;20763;-76
2022/08/29 10:16:28;;;;;;;15.93;3.93;;;16.70;86.90;;;;;;5057128;28;20205;-76
2022/08/29 10:18:56;;;;;;;8.43;3.13;;;16.60;87.10;;;;;;5080549;28;20180;-76
2022/08/29 10:21:48;;;;;;;11.90;3.33;;;16.60;87.10;;;;;;5070059;28;20172;-76
2022/08/29 10:24:28;;;;;;;8.03;3.50;;;16.60;87.00;;;;;;5076159;28;20672;-75
2022/08/29 10:27:30;;;;;;;9.00;3.73;;;16.60;87.00;;;;;;5055146;28;20651;-77
2022/08/29 10:30:13;;;;;;;12.43;4.43;;;16.70;86.80;;;;;;5063316;28;20185;-75
2022/08/29 10:32:56;;;;;;;9.70;4.57;;;16.70;86.70;;;;;;5064475;28;20175;-76
2022/08/29 10:35:36;;;;;;;13.87;4.53;;;16.70;86.60;;;;;;5058500;28;20279;-74
2022/08/29 10:38:14;;;;;;;8.50;4.43;;;16.70;86.60;;;;;;5060219;28;20176;-76
2022/08/29 10:40:47;;;;;;;11.80;4.63;;;16.70;86.30;;;;;;5062003;28;20247;-76
2022/08/29 10:43:22;;;;;;;9.97;5.20;;;16.70;86.30;;;;;;5054912;28;20683;-77
2022/08/29 10:46:07;;;;;;;8.40;5.10;;;16.70;85.90;;;;;;5055111;28;20177;-77
2022/08/29 10:49:18;;;;;;;12.80;6.03;;;16.70;85.80;;;;;;5060747;28;20225;-76
2022/08/29 10:51:56;;;;;;;11.67;5.13;;;16.70;85.90;;;;;;5076008;28;20192;-76
2022/08/29 10:54:26;;;;;;;13.00;5.90;;;16.70;85.90;;;;;;5054969;28;20182;-75
2022/08/29 10:56:55;;;;;;;13.90;5.63;;;16.70;86.00;;;;;;5078224;28;20307;-76
2022/08/29 10:59:59;;;;;;;13.20;6.00;;;16.60;86.00;;;;;;5078458;28;20176;-76
2022/08/29 11:02:38;;;;;;;12.97;5.73;;;16.60;86.20;;;;;;5049350;28;20217;-75
2022/08/29 11:05:34;;;;;;;13.93;5.43;;;16.60;86.20;;;;;;5054594;28;20236;-75
2022/08/29 11:08:20;;;;;;;9.97;5.07;;;16.60;86.20;;;;;;5085079;28;20189;-75
2022/08/29 11:10:52;;;;;;;11.57;5.27;;;16.70;86.30;;;;;;5054136;28;20185;-75
2022/08/29 11:13:39;;;;;;;12.50;5.27;;;16.70;86.00;;;;;;5054307;28;20202;-80
2022/08/29 11:16:24;;;;;;;12.37;5.33;;;16.60;85.90;;;;;;5073536;28;20186;-75
2022/08/29 11:19:11;;;;;;;10.60;5.07;;;16.60;85.90;;;;;;5072075;28;20185;-75
2022/08/29 11:22:11;;;;;;;8.10;4.77;;;16.70;85.80;;;;;;5054506;28;20178;-76
2022/08/29 11:24:42;;;;;;;13.63;5.03;;;16.70;85.60;;;;;;5041346;28;20194;-76
2022/08/29 11:27:41;;;;;;;12.83;4.90;;;16.70;85.40;;;;;;5063379;28;20579;-77
2022/08/29 11:31:01;;;;;;;10.23;4.53;;;16.70;85.40;;;;;;5056839;28;20214;-76
2022/08/29 11:34:14;;;;;;;13.73;4.70;;;16.60;85.10;;;;;;5041428;28;20184;-76
2022/08/29 11:36:52;;;;;;;7.80;4.40;;;16.70;85.10;;;;;;5063161;28;20187;-76
2022/08/29 11:39:40;;;;;;;12.70;4.57;;;16.60;85.10;;;;;;5065256;28;20208;-76
2022/08/29 11:42:11;;;;;;;11.13;3.87;;;16.60;85.00;;;;;;5053380;28;20592;-76
2022/08/29 11:45:00;;;;;;;11.07;4.73;;;16.50;85.10;;;;;;5064438;28;20176;-77
2022/08/29 11:48:17;;;;;;;11.27;5.17;;;16.50;85.30;;;;;;5075066;28;20180;-75
2022/08/29 11:50:45;;;;;;;8.27;4.77;;;16.40;85.50;;;;;;5052708;28;20576;-76
2022/08/29 11:53:36;;;;;;;15.10;5.60;;;16.40;85.50;;;;;;5053592;28;20191;-76
2022/08/29 11:56:12;;;;;;;11.73;4.40;;;16.30;85.60;;;;;;5054335;28;20183;-77
2022/08/29 11:58:44;;;;;;;8.57;3.83;;;16.40;85.20;;;;;;5070295;28;20179;-76
2022/08/29 12:01:36;;;;;;;13.43;4.37;;;16.40;85.00;;;;;;5061100;28;20599;-75
2022/08/29 12:04:06;;;;;;;11.00;4.80;;;16.40;84.80;;;;;;5052803;28;20211;-75
2022/08/29 12:06:42;;;;;;;10.00;4.53;;;16.40;84.70;;;;;;5074500;28;20221;-78
2022/08/29 12:09:12;;;;;;;5.63;3.80;;;16.40;84.60;;;;;;5066771;28;20185;-76
2022/08/29 12:11:58;;;;;;;8.07;4.27;;;16.40;84.10;;;;;;5068209;28;20178;-77
2022/08/29 12:14:47;;;;;;;8.30;3.80;;;16.50;83.70;;;;;;5052949;28;20584;-77
2022/08/29 12:17:17;;;;;;;9.47;4.00;;;16.50;83.70;;;;;;5078734;28;20190;-78
2022/08/29 12:19:50;;;;;;;8.63;4.00;;;16.40;83.40;;;;;;5061122;28;20228;-73
2022/08/29 12:22:47;;;;;;;7.40;3.20;;;16.50;83.00;;;;;;5063377;28;20201;-76
2022/08/29 12:25:23;;;;;;;11.00;3.87;;;16.50;83.20;;;;;;5060300;28;20196;-77
2022/08/29 12:28:20;;;;;;;8.77;3.30;;;16.50;83.00;;;;;;5055536;28;20183;-76
2022/08/29 12:31:10;;;;;;;7.70;3.73;;;16.50;82.70;;;;;;5067726;28;20559;-75
2022/08/29 12:33:56;;;;;;;8.90;3.80;;;16.50;82.60;;;;;;5052341;28;20188;-72
2022/08/29 12:37:17;;;;;;;6.93;3.30;;;16.50;82.50;;;;;;5052693;28;20164;-75
2022/08/29 12:40:09;;;;;;;5.60;3.33;;;16.40;82.40;;;;;;5068033;28;20199;-76
2022/08/29 12:43:10;;;;;;;4.53;3.00;;;16.50;82.00;;;;;;5062420;28;20562;-77
2022/08/29 12:45:41;;;;;;;6.83;3.20;;;16.40;82.00;;;;;;5052407;28;20263;-76
2022/08/29 12:48:32;;;;;;;9.57;3.63;;;16.40;82.10;;;;;;5056440;28;20626;-74
2022/08/29 12:51:01;;;;;;;7.97;3.17;;;16.30;81.90;;;;;;5065637;28;20184;-78
2022/08/29 12:53:33;;;;;;;9.40;3.80;;;16.40;81.30;;;;;;5053670;28;20234;-77
2022/08/29 12:56:17;;;;;;;6.70;3.03;;;16.40;81.30;;;;;;5052135;28;20183;-81
2022/08/29 12:58:57;;;;;;;4.60;2.80;;;16.30;81.30;;;;;;5054561;28;20172;-76
2022/08/29 13:01:39;;;;;;;6.23;3.23;;;16.30;80.90;;;;;;5057927;28;20708;-75
2022/08/29 13:04:14;;;;;;;3.17;2.43;;;16.40;80.90;;;;;;5052284;28;20213;-75
2022/08/29 13:07:15;;;;;;;5.07;2.90;;;16.40;80.70;;;;;;5052642;28;20553;-75
2022/08/29 13:09:52;;;;;;;6.03;2.70;;;16.40;80.50;;;;;;5072835;28;20196;-75
2022/08/29 13:12:31;;;;;;;7.00;3.13;;;16.50;80.40;;;;;;5057564;28;20189;-74
2022/08/29 13:15:00;;;;;;;4.47;3.00;;;16.30;80.60;;;;;;5052001;28;20209;-75